This is the latest recevied weather packets stored in our database for station/object KO6HRZ. If no packets are shown the sender has not sent any weather packets the latest 10 day(s).
| Time | Temp. | Humidity | Pressure | Rain* | Wind** | Luminosity | Snow |
|---|---|---|---|---|---|---|---|
| 1777328516 | 21.11° C | 48% | 1016.6 hPa | 0 mm | - | 280 W/m² | - |
| 1777327913 | 21.67° C | 47% | 1016.6 hPa | 0 mm | - | 228 W/m² | - |
| 1777327307 | 22.22° C | 45% | 1016.7 hPa | 0 mm | - | 824 W/m² | - |
| 1777326708 | 21.11° C | 48% | 1016.7 hPa | 0 mm | - | 201 W/m² | - |
| 1777326102 | 23.33° C | 40% | 1017 hPa | 0 mm | - | 305 W/m² | - |
| 1777325498 | 23.89° C | 42% | 1016.9 hPa | 0 mm | - | 878 W/m² | - |
| 1777324898 | 23.89° C | 44% | 1017.1 hPa | 0 mm | - | 921 W/m² | - |
| 1777324293 | 23.89° C | 46% | 1017 hPa | 0 mm | - | 934 W/m² | - |
| 1777323687 | 23.33° C | 44% | 1017.1 hPa | 0 mm | - | 971 W/m² | - |
| 1777323083 | 22.22° C | 46% | 1017 hPa | 0 mm | - | 959 W/m² | - |
| 1777322478 | 23.89° C | 44% | 1016.9 hPa | 0 mm | - | 928 W/m² | - |
| 1777321877 | 21.67° C | 47% | 1017.4 hPa | 0 mm | - | 956 W/m² | - |
| 1777321277 | 21.67° C | 51% | 1017.3 hPa | 0 mm | - | 954 W/m² | - |
| 1777320672 | 21.67° C | 46% | 1017.3 hPa | 0 mm | - | 964 W/m² | - |
| 1777320071 | 20° C | 50% | 1017.4 hPa | 0 mm | - | 352 W/m² | - |
| 1777319471 | 20.56° C | 50% | 1017.6 hPa | 0 mm | - | 343 W/m² | - |
| 1777318871 | 20° C | 53% | 1017.6 hPa | 0 mm | - | 253 W/m² | - |
| 1777318270 | 20.56° C | 51% | 1017.5 hPa | 0 mm | - | 189 W/m² | - |
| 1777317670 | 21.67° C | 50% | 1017.7 hPa | 0 mm | - | 900 W/m² | - |
| 1777317068 | 20° C | 52% | 1017.6 hPa | 0 mm | - | 975 W/m² | - |
| 1777316469 | 19.44° C | 55% | 1017.8 hPa | 0 mm | - | 996 W/m² | - |
| 1777315869 | 18.89° C | 59% | 1017.9 hPa | 0 mm | - | 288 W/m² | - |
| 1777315265 | 21.11° C | 52% | 1017.6 hPa | 0 mm | - | 877 W/m² | - |
| 1777314664 | 20° C | 53% | 1017.6 hPa | 0 mm | - | 854 W/m² | - |
| 1777314064 | 20° C | 57% | 1017.6 hPa | 0 mm | - | 880 W/m² | - |
* Rain latest hour (hover to see other rain measurements)
** Current wind speed in m/s (hover to see current wind gust speed)